sensor_id;sensor_type;location;lat;lon;timestamp;pressure;altitude;pressure_sealevel;temperature;humidity
3434;BME280;1730;41.932;25.548;2023-04-26T05:39:56;98501.31;;;18.38;100.00
3434;BME280;1730;41.932;25.548;2023-04-26T06:19:08;98195.47;;;20.59;100.00
3434;BME280;1730;41.932;25.548;2023-04-26T06:27:25;98157.44;;;21.85;100.00
3434;BME280;1730;41.932;25.548;2023-04-26T06:29:51;98155.00;;;21.67;100.00
3434;BME280;1730;41.932;25.548;2023-04-26T06:32:17;98149.06;;;21.15;100.00
3434;BME280;1730;41.932;25.548;2023-04-26T06:47:39;98156.75;;;20.11;100.00
3434;BME280;1730;41.932;25.548;2023-04-26T06:50:05;98166.75;;;19.54;100.00
3434;BME280;1730;41.932;25.548;2023-04-26T06:52:31;98169.84;;;19.34;100.00
3434;BME280;1730;41.932;25.548;2023-04-26T06:55:01;98036.34;;;18.03;100.00
3434;BME280;1730;41.932;25.548;2023-04-26T06:57:27;98171.41;;;19.65;100.00
3434;BME280;1730;41.932;25.548;2023-04-26T06:59:53;98145.50;;;19.44;100.00
3434;BME280;1730;41.932;25.548;2023-04-26T07:02:18;98025.84;;;19.11;100.00
3434;BME280;1730;41.932;25.548;2023-04-26T07:04:44;97783.00;;;16.95;100.00
3434;BME280;1730;41.932;25.548;2023-04-26T07:07:10;97973.50;;;18.33;100.00
3434;BME280;1730;41.932;25.548;2023-04-26T07:09:36;98062.59;;;18.80;100.00
3434;BME280;1730;41.932;25.548;2023-04-26T07:12:01;98168.56;;;20.00;100.00
3434;BME280;1730;41.932;25.548;2023-04-26T07:14:27;98176.59;;;20.18;100.00
3434;BME280;1730;41.932;25.548;2023-04-26T07:16:53;98067.41;;;19.13;100.00
3434;BME280;1730;41.932;25.548;2023-04-26T07:19:20;98160.12;;;19.61;100.00
3434;BME280;1730;41.932;25.548;2023-04-26T07:21:46;97750.19;;;16.90;100.00
3434;BME280;1730;41.932;25.548;2023-04-26T07:24:12;98196.34;;;19.22;100.00
3434;BME280;1730;41.932;25.548;2023-04-26T07:26:38;98188.38;;;19.09;100.00
3434;BME280;1730;41.932;25.548;2023-04-26T07:31:36;98174.22;;;19.00;100.00
3434;BME280;1730;41.932;25.548;2023-04-26T07:34:01;98170.41;;;18.78;100.00
3434;BME280;1730;41.932;25.548;2023-04-26T07:36:27;98170.66;;;18.88;100.00
3434;BME280;1730;41.932;25.548;2023-04-26T07:38:52;98175.69;;;19.49;100.00
3434;BME280;1730;41.932;25.548;2023-04-26T07:41:19;98167.47;;;19.61;100.00
3434;BME280;1730;41.932;25.548;2023-04-26T07:43:44;98177.50;;;19.95;100.00
3434;BME280;1730;41.932;25.548;2023-04-26T07:46:10;98170.03;;;19.79;100.00
3434;BME280;1730;41.932;25.548;2023-04-26T07:48:37;98173.16;;;19.36;100.00
3434;BME280;1730;41.932;25.548;2023-04-26T07:51:09;98213.44;;;18.94;100.00
3434;BME280;1730;41.932;25.548;2023-04-26T07:53:36;98204.22;;;19.30;100.00
3434;BME280;1730;41.932;25.548;2023-04-26T07:56:05;98182.88;;;19.90;100.00
3434;BME280;1730;41.932;25.548;2023-04-26T07:58:32;98060.50;;;19.46;100.00
3434;BME280;1730;41.932;25.548;2023-04-26T08:00:59;98044.59;;;19.71;100.00
3434;BME280;1730;41.932;25.548;2023-04-26T08:06:04;98156.53;;;19.49;100.00
3434;BME280;1730;41.932;25.548;2023-04-26T08:08:32;97756.47;;;16.79;100.00
3434;BME280;1730;41.932;25.548;2023-04-26T08:11:00;98178.53;;;19.08;100.00
3434;BME280;1730;41.932;25.548;2023-04-26T08:13:25;98171.63;;;18.82;100.00
3434;BME280;1730;41.932;25.548;2023-04-26T08:18:45;98169.69;;;18.82;100.00
3434;BME280;1730;41.932;25.548;2023-04-26T08:23:51;98164.87;;;19.54;100.00
3434;BME280;1730;41.932;25.548;2023-04-26T08:26:17;97617.63;;;16.38;100.00
3434;BME280;1730;41.932;25.548;2023-04-26T08:28:44;98176.41;;;20.08;100.00
3434;BME280;1730;41.932;25.548;2023-04-26T08:31:09;98155.22;;;20.60;100.00
3434;BME280;1730;41.932;25.548;2023-04-26T08:33:35;98081.72;;;19.95;100.00
3434;BME280;1730;41.932;25.548;2023-04-26T08:36:01;98096.37;;;20.17;100.00
3434;BME280;1730;41.932;25.548;2023-04-26T08:38:27;98135.53;;;20.18;100.00
3434;BME280;1730;41.932;25.548;2023-04-26T08:40:54;98179.25;;;20.13;100.00
3434;BME280;1730;41.932;25.548;2023-04-26T08:43:21;98102.56;;;19.85;100.00
3434;BME280;1730;41.932;25.548;2023-04-26T08:45:47;98102.34;;;19.46;100.00
3434;BME280;1730;41.932;25.548;2023-04-26T08:48:13;98147.50;;;20.00;100.00
3434;BME280;1730;41.932;25.548;2023-04-26T08:50:42;98138.28;;;20.46;100.00
3434;BME280;1730;41.932;25.548;2023-04-26T08:53:14;98037.06;;;19.50;100.00
3434;BME280;1730;41.932;25.548;2023-04-26T08:55:48;98157.97;;;20.03;100.00
3434;BME280;1730;41.932;25.548;2023-04-26T08:58:14;97897.69;;;18.23;100.00
3434;BME280;1730;41.932;25.548;2023-04-26T09:00:43;98087.28;;;18.85;100.00
3434;BME280;1730;41.932;25.548;2023-04-26T09:03:14;98133.81;;;19.49;100.00
3434;BME280;1730;41.932;25.548;2023-04-26T09:05:39;98112.91;;;19.43;100.00
3434;BME280;1730;41.932;25.548;2023-04-26T09:08:12;98121.94;;;19.55;100.00
3434;BME280;1730;41.932;25.548;2023-04-26T09:10:43;98123.34;;;19.97;100.00
3434;BME280;1730;41.932;25.548;2023-04-26T09:13:09;98109.28;;;20.05;100.00
3434;BME280;1730;41.932;25.548;2023-04-26T09:15:35;97893.41;;;18.51;100.00
3434;BME280;1730;41.932;25.548;2023-04-26T09:20:43;98135.22;;;19.63;100.00
3434;BME280;1730;41.932;25.548;2023-04-26T09:23:09;97979.22;;;19.18;100.00
3434;BME280;1730;41.932;25.548;2023-04-26T09:25:36;98119.19;;;20.23;100.00
3434;BME280;1730;41.932;25.548;2023-04-26T09:28:03;98020.75;;;19.55;100.00
3434;BME280;1730;41.932;25.548;2023-04-26T09:30:37;98108.38;;;20.45;100.00
3434;BME280;1730;41.932;25.548;2023-04-26T09:33:06;98101.84;;;20.17;100.00
3434;BME280;1730;41.932;25.548;2023-04-26T09:38:07;98084.97;;;20.54;100.00
3434;BME280;1730;41.932;25.548;2023-04-26T09:40:35;98082.41;;;20.02;100.00
3434;BME280;1730;41.932;25.548;2023-04-26T09:43:13;98094.63;;;20.40;100.00
3434;BME280;1730;41.932;25.548;2023-04-26T09:48:15;98086.09;;;20.24;100.00
3434;BME280;1730;41.932;25.548;2023-04-26T09:50:43;98083.09;;;20.54;100.00
3434;BME280;1730;41.932;25.548;2023-04-26T09:53:10;98075.84;;;20.32;100.00
3434;BME280;1730;41.932;25.548;2023-04-26T09:55:36;98066.00;;;20.19;100.00
3434;BME280;1730;41.932;25.548;2023-04-26T09:58:11;98072.31;;;20.19;100.00
3434;BME280;1730;41.932;25.548;2023-04-26T10:00:37;98068.97;;;20.62;100.00
3434;BME280;1730;41.932;25.548;2023-04-26T10:03:06;98063.06;;;20.87;100.00
3434;BME280;1730;41.932;25.548;2023-04-26T10:05:32;97738.09;;;19.44;100.00
3434;BME280;1730;41.932;25.548;2023-04-26T10:07:58;98054.19;;;20.80;100.00
3434;BME280;1730;41.932;25.548;2023-04-26T10:10:23;98053.78;;;20.72;100.00
3434;BME280;1730;41.932;25.548;2023-04-26T10:12:49;98054.72;;;20.99;100.00
3434;BME280;1730;41.932;25.548;2023-04-26T10:15:15;98010.22;;;20.53;100.00
3434;BME280;1730;41.932;25.548;2023-04-26T10:17:42;98058.72;;;21.08;100.00
3434;BME280;1730;41.932;25.548;2023-04-26T10:20:11;98052.66;;;21.44;100.00
3434;BME280;1730;41.932;25.548;2023-04-26T10:22:44;98055.50;;;21.33;100.00
3434;BME280;1730;41.932;25.548;2023-04-26T10:25:11;98057.94;;;21.51;100.00
3434;BME280;1730;41.932;25.548;2023-04-26T10:30:10;98059.03;;;21.50;100.00
3434;BME280;1730;41.932;25.548;2023-04-26T10:35:16;98064.31;;;20.96;100.00
3434;BME280;1730;41.932;25.548;2023-04-26T10:40:35;98056.47;;;21.65;100.00
3434;BME280;1730;41.932;25.548;2023-04-26T10:45:47;98067.75;;;20.70;100.00
3434;BME280;1730;41.932;25.548;2023-04-26T10:48:41;98015.38;;;20.66;100.00
3434;BME280;1730;41.932;25.548;2023-04-26T10:51:06;98066.81;;;20.81;100.00
3434;BME280;1730;41.932;25.548;2023-04-26T10:56:14;98075.13;;;20.69;100.00
3434;BME280;1730;41.932;25.548;2023-04-26T10:59:12;98070.53;;;20.92;100.00
3434;BME280;1730;41.932;25.548;2023-04-26T11:01:38;98070.97;;;20.84;100.00
3434;BME280;1730;41.932;25.548;2023-04-26T11:04:11;98015.72;;;20.53;100.00
3434;BME280;1730;41.932;25.548;2023-04-26T11:06:53;98090.63;;;20.47;100.00
3434;BME280;1730;41.932;25.548;2023-04-26T11:09:40;97999.03;;;19.36;100.00
3434;BME280;1730;41.932;25.548;2023-04-26T11:12:13;98075.34;;;19.50;100.00
3434;BME280;1730;41.932;25.548;2023-04-26T11:14:43;98108.88;;;19.22;100.00
3434;BME280;1730;41.932;25.548;2023-04-26T11:17:10;98094.87;;;19.30;100.00
3434;BME280;1730;41.932;25.548;2023-04-26T11:19:36;98124.94;;;19.07;100.00
3434;BME280;1730;41.932;25.548;2023-04-26T11:22:02;97961.28;;;18.12;100.00
3434;BME280;1730;41.932;25.548;2023-04-26T11:24:31;98104.22;;;18.11;100.00
3434;BME280;1730;41.932;25.548;2023-04-26T11:26:57;98142.72;;;17.55;100.00
3434;BME280;1730;41.932;25.548;2023-04-26T11:29:24;98123.44;;;17.13;100.00
3434;BME280;1730;41.932;25.548;2023-04-26T11:31:54;98184.50;;;16.81;100.00
3434;BME280;1730;41.932;25.548;2023-04-26T11:34:21;98159.22;;;16.74;100.00
3434;BME280;1730;41.932;25.548;2023-04-26T11:36:47;98187.94;;;16.39;100.00
3434;BME280;1730;41.932;25.548;2023-04-26T11:39:14;98195.66;;;16.04;100.00
3434;BME280;1730;41.932;25.548;2023-04-26T11:41:39;98208.81;;;15.43;100.00
3434;BME280;1730;41.932;25.548;2023-04-26T11:44:04;98220.09;;;15.46;100.00
3434;BME280;1730;41.932;25.548;2023-04-26T11:46:33;98171.94;;;14.96;100.00
3434;BME280;1730;41.932;25.548;2023-04-26T11:48:59;98194.53;;;15.67;100.00
3434;BME280;1730;41.932;25.548;2023-04-26T11:51:25;98143.28;;;15.13;100.00
3434;BME280;1730;41.932;25.548;2023-04-26T11:54:02;98161.12;;;15.66;100.00
3434;BME280;1730;41.932;25.548;2023-04-26T11:56:28;98164.69;;;15.60;100.00
3434;BME280;1730;41.932;25.548;2023-04-26T11:58:53;98173.31;;;15.24;100.00
3434;BME280;1730;41.932;25.548;2023-04-26T12:01:23;98186.06;;;15.24;100.00
3434;BME280;1730;41.932;25.548;2023-04-26T12:03:52;98209.25;;;15.53;100.00
3434;BME280;1730;41.932;25.548;2023-04-26T12:06:18;98050.91;;;14.35;100.00
3434;BME280;1730;41.932;25.548;2023-04-26T12:08:51;98138.50;;;14.88;100.00
3434;BME280;1730;41.932;25.548;2023-04-26T12:11:17;97996.37;;;13.38;100.00
3434;BME280;1730;41.932;25.548;2023-04-26T12:13:44;98276.75;;;15.03;100.00
3434;BME280;1730;41.932;25.548;2023-04-26T12:16:12;98359.81;;;14.84;100.00
3434;BME280;1730;41.932;25.548;2023-04-26T12:18:38;98404.25;;;14.70;100.00
3434;BME280;1730;41.932;25.548;2023-04-26T12:21:05;98313.62;;;14.11;100.00
3434;BME280;1730;41.932;25.548;2023-04-26T12:23:38;98477.53;;;15.24;100.00
3434;BME280;1730;41.932;25.548;2023-04-26T12:26:06;98421.53;;;15.17;100.00
3434;BME280;1730;41.932;25.548;2023-04-26T12:28:34;98438.44;;;15.19;100.00
3434;BME280;1730;41.932;25.548;2023-04-26T12:31:00;98496.91;;;14.67;100.00
3434;BME280;1730;41.932;25.548;2023-04-26T12:33:27;98575.87;;;14.79;100.00
3434;BME280;1730;41.932;25.548;2023-04-26T12:35:53;98637.44;;;15.00;100.00
3434;BME280;1730;41.932;25.548;2023-04-26T12:38:18;98645.31;;;14.67;100.00
3434;BME280;1730;41.932;25.548;2023-04-26T12:40:44;98579.31;;;13.89;100.00
3434;BME280;1730;41.932;25.548;2023-04-26T12:43:10;98716.25;;;14.85;100.00
3434;BME280;1730;41.932;25.548;2023-04-26T12:45:36;98705.25;;;14.93;100.00
3434;BME280;1730;41.932;25.548;2023-04-26T12:48:02;98731.06;;;14.61;100.00
3434;BME280;1730;41.932;25.548;2023-04-26T12:50:27;98813.56;;;14.67;100.00
3434;BME280;1730;41.932;25.548;2023-04-26T12:52:53;98815.03;;;14.48;100.00
3434;BME280;1730;41.932;25.548;2023-04-26T12:55:20;98893.28;;;14.66;100.00
3434;BME280;1730;41.932;25.548;2023-04-26T12:57:45;98929.28;;;14.38;100.00
3434;BME280;1730;41.932;25.548;2023-04-26T13:00:13;98826.69;;;13.54;100.00
3434;BME280;1730;41.932;25.548;2023-04-26T13:02:39;98938.81;;;14.34;100.00
3434;BME280;1730;41.932;25.548;2023-04-26T13:05:06;98932.47;;;14.57;100.00
3434;BME280;1730;41.932;25.548;2023-04-26T13:07:36;98903.41;;;14.72;100.00
3434;BME280;1730;41.932;25.548;2023-04-26T13:10:04;98894.56;;;14.49;100.00
3434;BME280;1730;41.932;25.548;2023-04-26T13:12:30;98951.69;;;14.76;100.00
3434;BME280;1730;41.932;25.548;2023-04-26T13:14:56;98850.09;;;14.35;100.00
3434;BME280;1730;41.932;25.548;2023-04-26T13:17:23;98842.00;;;14.92;100.00
3434;BME280;1730;41.932;25.548;2023-04-26T13:19:50;98780.09;;;14.81;100.00
3434;BME280;1730;41.932;25.548;2023-04-26T13:22:17;98695.28;;;14.30;100.00
3434;BME280;1730;41.932;25.548;2023-04-26T13:24:42;98811.84;;;14.80;100.00
3434;BME280;1730;41.932;25.548;2023-04-26T13:27:09;98840.66;;;14.60;100.00
3434;BME280;1730;41.932;25.548;2023-04-26T13:29:35;98878.09;;;14.86;100.00
3434;BME280;1730;41.932;25.548;2023-04-26T13:32:01;98848.28;;;15.14;100.00
3434;BME280;1730;41.932;25.548;2023-04-26T13:34:28;98580.63;;;13.93;100.00
3434;BME280;1730;41.932;25.548;2023-04-26T13:36:55;98734.44;;;15.47;100.00
3434;BME280;1730;41.932;25.548;2023-04-26T13:39:22;98699.06;;;15.33;100.00
3434;BME280;1730;41.932;25.548;2023-04-26T13:41:48;98727.91;;;15.69;100.00
3434;BME280;1730;41.932;25.548;2023-04-26T13:44:14;98749.91;;;15.81;100.00
3434;BME280;1730;41.932;25.548;2023-04-26T13:46:40;98750.16;;;15.86;100.00
3434;BME280;1730;41.932;25.548;2023-04-26T13:49:06;98590.78;;;14.89;100.00
3434;BME280;1730;41.932;25.548;2023-04-26T13:51:32;98760.59;;;15.48;100.00
3434;BME280;1730;41.932;25.548;2023-04-26T13:53:59;98778.47;;;15.63;100.00
3434;BME280;1730;41.932;25.548;2023-04-26T13:56:24;98727.38;;;15.18;100.00
3434;BME280;1730;41.932;25.548;2023-04-26T13:58:54;98811.84;;;15.78;100.00
3434;BME280;1730;41.932;25.548;2023-04-26T14:01:27;98746.78;;;15.49;100.00
3434;BME280;1730;41.932;25.548;2023-04-26T14:03:53;98774.44;;;15.87;100.00
3434;BME280;1730;41.932;25.548;2023-04-26T14:06:18;98787.00;;;15.88;100.00
3434;BME280;1730;41.932;25.548;2023-04-26T14:08:45;98369.44;;;13.64;100.00
3434;BME280;1730;41.932;25.548;2023-04-26T14:11:13;98680.38;;;15.52;100.00
3434;BME280;1730;41.932;25.548;2023-04-26T14:13:39;98637.16;;;15.29;100.00
3434;BME280;1730;41.932;25.548;2023-04-26T14:16:06;98683.09;;;15.52;100.00
3434;BME280;1730;41.932;25.548;2023-04-26T14:18:32;98681.41;;;15.16;100.00
3434;BME280;1730;41.932;25.548;2023-04-26T14:20:59;98603.75;;;14.60;100.00
3434;BME280;1730;41.932;25.548;2023-04-26T14:23:24;98753.63;;;15.39;100.00
3434;BME280;1730;41.932;25.548;2023-04-26T14:25:51;98747.50;;;15.30;100.00
3434;BME280;1730;41.932;25.548;2023-04-26T14:28:17;98681.41;;;15.23;100.00
3434;BME280;1730;41.932;25.548;2023-04-26T14:30:43;98752.53;;;14.77;100.00
3434;BME280;1730;41.932;25.548;2023-04-26T14:33:10;98775.16;;;15.12;100.00
3434;BME280;1730;41.932;25.548;2023-04-26T14:35:36;98754.12;;;15.21;100.00
3434;BME280;1730;41.932;25.548;2023-04-26T14:38:01;98658.81;;;14.81;100.00
3434;BME280;1730;41.932;25.548;2023-04-26T14:40:28;98779.81;;;15.46;100.00
3434;BME280;1730;41.932;25.548;2023-04-26T14:42:54;98802.59;;;14.96;100.00
3434;BME280;1730;41.932;25.548;2023-04-26T14:45:20;98833.81;;;15.07;100.00
3434;BME280;1730;41.932;25.548;2023-04-26T14:47:46;98558.41;;;13.26;100.00
3434;BME280;1730;41.932;25.548;2023-04-26T14:50:11;98884.69;;;15.19;100.00
3434;BME280;1730;41.932;25.548;2023-04-26T14:52:39;98921.03;;;15.18;100.00
3434;BME280;1730;41.932;25.548;2023-04-26T14:55:05;98957.31;;;15.11;100.00
3434;BME280;1730;41.932;25.548;2023-04-26T14:57:31;99009.59;;;15.34;100.00
3434;BME280;1730;41.932;25.548;2023-04-26T14:59:57;99001.69;;;15.18;100.00
3434;BME280;1730;41.932;25.548;2023-04-26T15:02:30;99005.41;;;14.96;100.00
3434;BME280;1730;41.932;25.548;2023-04-26T15:04:56;99057.28;;;14.86;100.00
3434;BME280;1730;41.932;25.548;2023-04-26T15:07:21;99165.22;;;14.99;100.00
3434;BME280;1730;41.932;25.548;2023-04-26T15:09:47;99255.31;;;15.17;100.00
3434;BME280;1730;41.932;25.548;2023-04-26T15:12:13;99271.97;;;14.99;100.00
3434;BME280;1730;41.932;25.548;2023-04-26T15:14:38;99252.06;;;14.61;100.00
3434;BME280;1730;41.932;25.548;2023-04-26T15:17:04;99308.53;;;14.66;100.00
3434;BME280;1730;41.932;25.548;2023-04-26T15:19:29;99361.88;;;15.04;100.00
3434;BME280;1730;41.932;25.548;2023-04-26T15:21:55;99238.87;;;14.58;100.00
3434;BME280;1730;41.932;25.548;2023-04-26T15:24:21;99288.50;;;14.89;100.00
3434;BME280;1730;41.932;25.548;2023-04-26T15:26:47;99316.69;;;15.26;100.00
3434;BME280;1730;41.932;25.548;2023-04-26T15:31:48;99250.50;;;14.67;100.00
3434;BME280;1730;41.932;25.548;2023-04-26T15:34:15;99267.63;;;14.90;100.00
3434;BME280;1730;41.932;25.548;2023-04-26T15:36:41;99245.59;;;15.22;100.00
3434;BME280;1730;41.932;25.548;2023-04-26T15:39:06;99194.53;;;15.03;100.00
3434;BME280;1730;41.932;25.548;2023-04-26T15:41:32;99168.09;;;14.82;100.00
3434;BME280;1730;41.932;25.548;2023-04-26T15:43:58;99176.47;;;15.25;100.00
3434;BME280;1730;41.932;25.548;2023-04-26T15:46:25;99147.44;;;15.25;100.00
3434;BME280;1730;41.932;25.548;2023-04-26T15:48:50;99109.34;;;15.40;100.00
3434;BME280;1730;41.932;25.548;2023-04-26T15:51:16;99039.34;;;15.21;100.00
3434;BME280;1730;41.932;25.548;2023-04-26T15:53:42;99041.94;;;15.65;100.00
3434;BME280;1730;41.932;25.548;2023-04-26T15:56:14;98991.47;;;15.41;100.00
3434;BME280;1730;41.932;25.548;2023-04-26T15:58:43;98943.59;;;15.40;100.00
3434;BME280;1730;41.932;25.548;2023-04-26T16:01:12;98901.97;;;15.54;100.00
3434;BME280;1730;41.932;25.548;2023-04-26T16:03:39;98921.13;;;15.95;100.00
3434;BME280;1730;41.932;25.548;2023-04-26T16:06:05;98905.22;;;15.71;100.00
3434;BME280;1730;41.932;25.548;2023-04-26T16:08:33;98740.84;;;15.05;100.00
3434;BME280;1730;41.932;25.548;2023-04-26T16:11:00;98892.44;;;15.93;100.00
3434;BME280;1730;41.932;25.548;2023-04-26T16:13:29;98861.28;;;15.95;100.00
3434;BME280;1730;41.932;25.548;2023-04-26T16:16:12;98862.66;;;15.85;100.00
3434;BME280;1730;41.932;25.548;2023-04-26T16:18:38;98842.13;;;15.75;100.00
3434;BME280;1730;41.932;25.548;2023-04-26T16:21:07;98845.06;;;15.81;100.00
3434;BME280;1730;41.932;25.548;2023-04-26T16:23:53;98633.19;;;14.63;100.00
3434;BME280;1730;41.932;25.548;2023-04-26T16:26:21;98789.44;;;15.49;100.00
3434;BME280;1730;41.932;25.548;2023-04-26T16:28:48;98490.81;;;13.75;100.00
3434;BME280;1730;41.932;25.548;2023-04-26T16:31:26;98782.94;;;15.50;100.00
3434;BME280;1730;41.932;25.548;2023-04-26T16:34:01;98160.38;;;11.43;100.00
3434;BME280;1730;41.932;25.548;2023-04-26T16:36:31;98269.72;;;11.24;100.00
3434;BME280;1730;41.932;25.548;2023-04-26T16:38:57;98887.41;;;14.98;100.00
3434;BME280;1730;41.932;25.548;2023-04-26T16:41:22;98907.03;;;14.79;100.00
3434;BME280;1730;41.932;25.548;2023-04-26T16:43:48;98924.22;;;14.65;100.00
3434;BME280;1730;41.932;25.548;2023-04-26T16:46:17;98882.31;;;14.23;100.00
3434;BME280;1730;41.932;25.548;2023-04-26T16:48:42;98900.34;;;14.31;100.00
3434;BME280;1730;41.932;25.548;2023-04-26T16:51:08;98965.69;;;13.92;100.00
3434;BME280;1730;41.932;25.548;2023-04-26T16:53:34;99094.63;;;14.09;100.00
3434;BME280;1730;41.932;25.548;2023-04-26T16:55:59;99116.56;;;14.22;100.00
3434;BME280;1730;41.932;25.548;2023-04-26T16:58:27;99115.38;;;14.48;100.00
3434;BME280;1730;41.932;25.548;2023-04-26T17:00:57;98734.59;;;12.27;100.00
3434;BME280;1730;41.932;25.548;2023-04-26T17:03:22;99049.31;;;14.55;100.00
3434;BME280;1730;41.932;25.548;2023-04-26T17:05:48;99002.41;;;14.61;100.00
3434;BME280;1730;41.932;25.548;2023-04-26T17:08:15;99021.94;;;14.27;100.00
3434;BME280;1730;41.932;25.548;2023-04-26T17:10:41;99089.38;;;14.30;100.00
3434;BME280;1730;41.932;25.548;2023-04-26T17:13:07;99118.06;;;14.25;100.00
3434;BME280;1730;41.932;25.548;2023-04-26T17:15:33;99135.66;;;14.52;100.00
3434;BME280;1730;41.932;25.548;2023-04-26T17:17:59;99134.91;;;14.58;100.00
3434;BME280;1730;41.932;25.548;2023-04-26T17:20:35;99116.69;;;14.52;100.00
3434;BME280;1730;41.932;25.548;2023-04-26T17:23:01;99126.81;;;14.72;100.00
3434;BME280;1730;41.932;25.548;2023-04-26T17:25:28;99121.09;;;14.67;100.00
3434;BME280;1730;41.932;25.548;2023-04-26T17:27:54;99081.50;;;14.43;100.00
3434;BME280;1730;41.932;25.548;2023-04-26T17:30:21;99081.50;;;14.43;100.00
3434;BME280;1730;41.932;25.548;2023-04-26T17:32:47;99127.62;;;14.58;100.00
3434;BME280;1730;41.932;25.548;2023-04-26T17:35:13;99167.78;;;14.63;100.00
3434;BME280;1730;41.932;25.548;2023-04-26T17:37:38;99164.44;;;14.75;100.00
3434;BME280;1730;41.932;25.548;2023-04-26T17:40:06;99134.28;;;14.70;100.00
3434;BME280;1730;41.932;25.548;2023-04-26T17:42:32;99043.25;;;14.16;100.00
3434;BME280;1730;41.932;25.548;2023-04-26T17:44:58;99155.53;;;14.67;100.00
3434;BME280;1730;41.932;25.548;2023-04-26T17:47:26;99186.34;;;14.74;100.00
3434;BME280;1730;41.932;25.548;2023-04-26T17:49:52;99155.25;;;14.76;100.00
3434;BME280;1730;41.932;25.548;2023-04-26T17:52:17;99126.22;;;14.48;100.00
3434;BME280;1730;41.932;25.548;2023-04-26T17:54:43;99129.78;;;14.63;100.00
3434;BME280;1730;41.932;25.548;2023-04-26T17:57:08;99120.16;;;14.60;100.00
3434;BME280;1730;41.932;25.548;2023-04-26T17:59:34;99106.41;;;14.76;100.00
3434;BME280;1730;41.932;25.548;2023-04-26T18:01:59;99114.38;;;14.78;100.00
3434;BME280;1730;41.932;25.548;2023-04-26T18:04:27;98975.22;;;13.88;100.00
3434;BME280;1730;41.932;25.548;2023-04-26T18:06:52;99143.19;;;14.79;100.00
3434;BME280;1730;41.932;25.548;2023-04-26T18:09:18;99149.09;;;14.82;100.00
3434;BME280;1730;41.932;25.548;2023-04-26T18:11:44;99165.09;;;14.92;100.00
3434;BME280;1730;41.932;25.548;2023-04-26T18:14:15;99126.63;;;14.74;100.00
3434;BME280;1730;41.932;25.548;2023-04-26T18:16:41;99116.59;;;14.74;100.00
3434;BME280;1730;41.932;25.548;2023-04-26T18:19:07;99126.91;;;14.94;100.00
3434;BME280;1730;41.932;25.548;2023-04-26T18:21:33;99108.81;;;14.71;100.00
3434;BME280;1730;41.932;25.548;2023-04-26T18:23:58;99031.13;;;13.66;100.00
3434;BME280;1730;41.932;25.548;2023-04-26T18:26:27;99250.28;;;14.54;100.00
3434;BME280;1730;41.932;25.548;2023-04-26T18:28:54;99175.06;;;14.48;100.00
3434;BME280;1730;41.932;25.548;2023-04-26T18:31:20;99056.53;;;13.65;100.00
3434;BME280;1730;41.932;25.548;2023-04-26T18:33:47;99207.81;;;14.15;100.00
3434;BME280;1730;41.932;25.548;2023-04-26T18:36:13;99232.22;;;14.15;100.00
3434;BME280;1730;41.932;25.548;2023-04-26T18:38:39;99283.31;;;14.26;100.00
3434;BME280;1730;41.932;25.548;2023-04-26T18:41:05;99297.78;;;14.19;100.00
3434;BME280;1730;41.932;25.548;2023-04-26T18:43:31;99323.34;;;14.24;100.00
3434;BME280;1730;41.932;25.548;2023-04-26T18:45:56;99074.03;;;12.85;100.00
3434;BME280;1730;41.932;25.548;2023-04-26T18:48:22;99333.97;;;14.42;100.00
3434;BME280;1730;41.932;25.548;2023-04-26T18:50:51;99331.88;;;14.52;100.00
3434;BME280;1730;41.932;25.548;2023-04-26T18:53:16;99286.38;;;13.92;100.00
3434;BME280;1730;41.932;25.548;2023-04-26T18:55:42;99372.78;;;14.04;100.00
3434;BME280;1730;41.932;25.548;2023-04-26T18:58:08;99304.72;;;13.27;100.00
3434;BME280;1730;41.932;25.548;2023-04-26T19:00:35;99469.06;;;13.83;100.00
3434;BME280;1730;41.932;25.548;2023-04-26T19:03:00;99515.78;;;14.10;100.00
3434;BME280;1730;41.932;25.548;2023-04-26T19:05:26;99401.19;;;13.36;100.00
3434;BME280;1730;41.932;25.548;2023-04-26T19:07:51;99201.75;;;12.40;100.00
3434;BME280;1730;41.932;25.548;2023-04-26T19:10:18;99513.84;;;14.51;100.00
3434;BME280;1730;41.932;25.548;2023-04-26T19:12:44;99482.19;;;14.43;100.00
3434;BME280;1730;41.932;25.548;2023-04-26T19:15:10;99454.91;;;14.20;100.00
3434;BME280;1730;41.932;25.548;2023-04-26T19:17:36;99504.06;;;14.41;100.00
3434;BME280;1730;41.932;25.548;2023-04-26T19:20:02;99502.62;;;14.54;100.00
3434;BME280;1730;41.932;25.548;2023-04-26T19:22:34;99473.19;;;14.34;100.00
3434;BME280;1730;41.932;25.548;2023-04-26T19:25:00;99455.44;;;14.16;100.00
3434;BME280;1730;41.932;25.548;2023-04-26T19:27:26;99378.94;;;14.28;100.00
3434;BME280;1730;41.932;25.548;2023-04-26T19:29:52;99134.31;;;13.57;100.00
3434;BME280;1730;41.932;25.548;2023-04-26T19:32:17;99181.41;;;14.09;100.00
3434;BME280;1730;41.932;25.548;2023-04-26T19:34:44;99143.28;;;14.11;100.00
3434;BME280;1730;41.932;25.548;2023-04-26T19:37:10;99114.69;;;14.00;100.00
3434;BME280;1730;41.932;25.548;2023-04-26T19:39:37;99013.19;;;13.42;100.00
3434;BME280;1730;41.932;25.548;2023-04-26T19:42:02;99111.56;;;13.88;100.00
3434;BME280;1730;41.932;25.548;2023-04-26T19:44:28;99094.91;;;13.99;100.00
3434;BME280;1730;41.932;25.548;2023-04-26T19:46:54;99105.25;;;13.96;100.00
3434;BME280;1730;41.932;25.548;2023-04-26T19:49:19;99106.69;;;14.07;100.00
3434;BME280;1730;41.932;25.548;2023-04-26T19:51:46;98811.91;;;12.05;100.00
3434;BME280;1730;41.932;25.548;2023-04-26T19:54:11;98995.00;;;13.28;100.00
3434;BME280;1730;41.932;25.548;2023-04-26T19:56:36;99115.97;;;13.89;100.00
3434;BME280;1730;41.932;25.548;2023-04-26T19:59:02;98998.19;;;13.32;100.00
3434;BME280;1730;41.932;25.548;2023-04-26T20:01:27;99121.28;;;14.06;100.00
3434;BME280;1730;41.932;25.548;2023-04-26T20:03:53;99059.53;;;13.47;100.00
3434;BME280;1730;41.932;25.548;2023-04-26T20:06:18;99179.47;;;14.18;100.00
3434;BME280;1730;41.932;25.548;2023-04-26T20:08:44;98854.59;;;12.18;100.00